Kezdőlap
METAR-TAF:

METAR-TAF

Repülőterek :

Abakan, Oroszország

földrajzi szélesség: 53-45N, földrajzi hosszúság: 091-24E, magasság: 245 m

Jelenlegi meteorológiai megfigyelések

A jelentés 10 perccel ezelõtt készült, 19:30 UTC
Szélcsend
Hőmérséklet 17°C
Páratartalom 88%
Légköri nyomás 1007 hPa
Látótávolság 10 km, vagy több
felhőtlen 1500 m magasságban, és nincs gomolyfelhõ

METAR: UNAA 131930Z 00000MPS CAVOK 17/15 Q1007 R02/CLRD65 NOSIG RMK QFE733

Idő: 02:40 (19:40 UTC)

Előrejelzés

A jelentés 2 órával és 44 perccel ezelõtt készült, 16:56 UTC
Az előrejelzés 13-én 18 óra UTC és 14-én 18 óra UTC között érvényes
Északi szél 6 kt
Látótávolság 10 km, vagy több
felhőtlen 1500 m magasságban, és nincs gomolyfelhõ

TAF: UNAA 131656Z 1318/1418 36003MPS CAVOK

Meteorológiai megfigyelések és előrejelzések több, mint 4000 repülőtéren (METAR és TAF jelentéseket).

A térképen piros és sárga pontok jelzik az elérhető meteorológiai állomásokat.

Mozgassa az egeret a pont fölött, hogy megjelenjen az állomás neve.

Azután kattintson az időjárási megfigyelések és előrejelzések megtekintéséhez.

A térkép megváltoztatása: kattintson a fekete keresztel jelölt zöld gombra ráközelítéshez, a vonallal jelölt zöld gombra távolításhoz, vagy a zöld nyilakra a szomszédos térképek eléréséhez.


METAR-TAF: